Time;durP1;ratioP1;P1;durP2;ratioP2;P2;SDS_P1;SDS_P2;PMS_P1;PMS_P2;Temp;Humidity;BMP_temperature;BMP_pressure;BME280_temperature;BME280_humidity;BME280_pressure;Samples;Min_cycle;Max_cycle;Signal;HPM_P1;HPM_P2
2024/02/10 00:01:38;;;;;;;7.60;4.70;;;;;;;;;;769621;182;817064;-69
2024/02/10 00:04:06;;;;;;;7.17;4.50;;;;;;;;;;770323;180;918427;-67
2024/02/10 00:06:31;;;;;;;7.77;4.10;;;;;;;;;;767633;180;920029;-65
2024/02/10 00:08:57;;;;;;;5.60;4.07;;;;;;;;;;776119;180;717747;-65
2024/02/10 00:11:22;;;;;;;12.60;6.33;;;;;;;;;;771198;180;918857;-65
2024/02/10 00:13:49;;;;;;;28.67;19.70;;;;;;;;;;771063;180;917552;-66
2024/02/10 00:16:15;;;;;;;25.10;13.80;;;;;;;;;;768708;179;947621;-63
2024/02/10 00:18:41;;;;;;;15.07;10.27;;;;;;;;;;768902;180;815264;-64
2024/02/10 00:21:07;;;;;;;10.48;6.32;;;;;;;;;;767286;180;920060;-65
2024/02/10 00:23:32;;;;;;;13.67;5.70;;;;;;;;;;769411;180;916559;-65
2024/02/10 00:25:58;;;;;;;9.53;5.30;;;;;;;;;;773204;180;919142;-64
2024/02/10 00:28:24;;;;;;;7.10;5.80;;;;;;;;;;766227;180;920975;-64
2024/02/10 00:30:49;;;;;;;9.33;5.40;;;;;;;;;;769156;180;1024725;-66
2024/02/10 00:33:15;;;;;;;6.78;4.43;;;;;;;;;;774002;180;816273;-65
2024/02/10 00:35:41;;;;;;;7.33;4.63;;;;;;;;;;768325;180;918085;-67
2024/02/10 00:38:07;;;;;;;9.40;4.80;;;;;;;;;;768649;180;920435;-64
2024/02/10 00:40:33;;;;;;;6.80;4.67;;;;;;;;;;774677;180;816566;-64
2024/02/10 00:42:58;;;;;;;6.90;4.27;;;;;;;;;;766240;180;919041;-66
2024/02/10 00:45:24;;;;;;;10.17;5.40;;;;;;;;;;772008;180;816954;-68
2024/02/10 00:47:50;;;;;;;7.60;4.90;;;;;;;;;;766366;179;907937;-64
2024/02/10 00:50:16;;;;;;;9.13;6.07;;;;;;;;;;765034;182;876102;-66
2024/02/10 00:52:48;;;;;;;6.90;4.83;;;;;;;;;;761955;182;920996;-67
2024/02/10 00:55:08;;;;;;;10.10;5.80;;;;;;;;;;762179;181;916478;-67
2024/02/10 00:57:34;;;;;;;8.43;4.50;;;;;;;;;;770434;180;918151;-65
2024/02/10 00:59:59;;;;;;;5.20;4.20;;;;;;;;;;771611;180;925073;-67
2024/02/10 01:02:25;;;;;;;8.17;4.43;;;;;;;;;;766425;179;1629710;-67
2024/02/10 01:04:53;;;;;;;13.73;4.80;;;;;;;;;;773068;180;919344;-64
2024/02/10 01:07:17;;;;;;;9.00;4.83;;;;;;;;;;768619;179;895454;-64
2024/02/10 01:09:46;;;;;;;9.53;5.60;;;;;;;;;;769905;180;918743;-64
2024/02/10 01:12:09;;;;;;;12.93;6.90;;;;;;;;;;775026;179;820192;-65
2024/02/10 01:14:36;;;;;;;12.43;5.27;;;;;;;;;;773551;179;815967;-65
2024/02/10 01:17:03;;;;;;;21.73;11.03;;;;;;;;;;773028;180;815868;-67
2024/02/10 01:19:26;;;;;;;14.10;7.27;;;;;;;;;;765297;180;919060;-65
2024/02/10 01:21:54;;;;;;;12.13;6.60;;;;;;;;;;774555;180;915676;-68
2024/02/10 01:24:20;;;;;;;8.70;5.73;;;;;;;;;;769399;180;876030;-67
2024/02/10 01:26:44;;;;;;;11.70;5.27;;;;;;;;;;767251;180;918429;-64
2024/02/10 01:29:10;;;;;;;7.73;4.73;;;;;;;;;;771061;180;1025426;-64
2024/02/10 01:31:35;;;;;;;9.73;5.50;;;;;;;;;;768975;180;918918;-69
2024/02/10 01:34:01;;;;;;;6.33;3.80;;;;;;;;;;767262;180;919459;-64
2024/02/10 01:36:33;;;;;;;8.27;4.50;;;;;;;;;;772745;180;826874;-64
2024/02/10 01:38:56;;;;;;;8.20;4.67;;;;;;;;;;765794;180;919256;-66
2024/02/10 01:41:21;;;;;;;10.80;5.33;;;;;;;;;;766621;180;918259;-68
2024/02/10 01:43:50;;;;;;;9.73;5.97;;;;;;;;;;765188;178;896498;-66
2024/02/10 01:46:13;;;;;;;8.70;3.90;;;;;;;;;;773411;180;817458;-64
2024/02/10 01:48:39;;;;;;;6.23;3.97;;;;;;;;;;769300;180;920568;-66
2024/02/10 01:51:05;;;;;;;8.77;4.40;;;;;;;;;;767335;180;916643;-66
2024/02/10 01:53:31;;;;;;;9.43;4.97;;;;;;;;;;773365;179;917415;-66
2024/02/10 01:55:58;;;;;;;7.73;4.00;;;;;;;;;;766555;180;858524;-66
2024/02/10 01:58:22;;;;;;;9.93;4.97;;;;;;;;;;767389;180;927633;-66
2024/02/10 02:00:48;;;;;;;7.20;4.20;;;;;;;;;;772786;180;919538;-63
2024/02/10 02:03:14;;;;;;;8.30;3.87;;;;;;;;;;766602;180;816085;-66
2024/02/10 02:05:41;;;;;;;6.67;4.23;;;;;;;;;;768592;180;919375;-67
2024/02/10 02:08:06;;;;;;;9.30;5.17;;;;;;;;;;765610;179;920198;-63
2024/02/10 02:10:32;;;;;;;10.40;4.60;;;;;;;;;;765520;180;921068;-64
2024/02/10 02:12:58;;;;;;;8.30;4.97;;;;;;;;;;765913;180;920061;-63
2024/02/10 02:15:27;;;;;;;6.95;3.60;;;;;;;;;;766957;180;918702;-66
2024/02/10 02:17:49;;;;;;;7.57;5.37;;;;;;;;;;775392;180;817095;-63
2024/02/10 02:20:15;;;;;;;9.63;5.53;;;;;;;;;;770686;179;918078;-64
2024/02/10 02:22:47;;;;;;;9.13;5.30;;;;;;;;;;767026;181;841319;-65
2024/02/10 02:25:14;;;;;;;9.15;5.90;;;;;;;;;;775091;180;938581;-65
2024/02/10 02:27:39;;;;;;;8.10;6.50;;;;;;;;;;768386;180;919929;-64
2024/02/10 02:30:06;;;;;;;9.10;5.60;;;;;;;;;;764465;180;919535;-65
2024/02/10 02:32:34;;;;;;;8.33;5.23;;;;;;;;;;766482;180;918525;-67
2024/02/10 02:34:58;;;;;;;10.70;5.80;;;;;;;;;;773626;180;918940;-64
2024/02/10 02:37:23;;;;;;;8.60;5.60;;;;;;;;;;770414;180;921206;-64
2024/02/10 02:39:49;;;;;;;10.70;5.63;;;;;;;;;;769648;179;931267;-65
2024/02/10 02:42:15;;;;;;;10.60;4.97;;;;;;;;;;774482;180;834672;-66
2024/02/10 02:44:44;;;;;;;8.97;6.37;;;;;;;;;;770481;180;820237;-63
2024/02/10 02:47:07;;;;;;;14.30;7.77;;;;;;;;;;767345;180;915934;-64
2024/02/10 02:49:33;;;;;;;9.20;6.30;;;;;;;;;;773035;180;915498;-63
2024/02/10 02:51:58;;;;;;;10.33;6.53;;;;;;;;;;771471;179;920647;-64
2024/02/10 02:54:24;;;;;;;9.70;6.10;;;;;;;;;;769001;180;917663;-64
2024/02/10 02:56:50;;;;;;;13.53;6.83;;;;;;;;;;767252;180;919871;-65
2024/02/10 02:59:16;;;;;;;16.97;9.27;;;;;;;;;;773388;180;917551;-64
2024/02/10 03:01:42;;;;;;;11.60;8.03;;;;;;;;;;769711;180;918316;-63
2024/02/10 03:04:08;;;;;;;25.40;14.57;;;;;;;;;;758786;183;920884;-63
2024/02/10 03:06:33;;;;;;;11.03;7.20;;;;;;;;;;763310;183;817715;-63
2024/02/10 03:09:00;;;;;;;9.97;5.17;;;;;;;;;;758343;184;816715;-64
2024/02/10 03:11:26;;;;;;;7.67;4.60;;;;;;;;;;759788;184;752122;-66
2024/02/10 03:13:51;;;;;;;7.40;4.43;;;;;;;;;;759784;184;853684;-64
2024/02/10 03:16:17;;;;;;;9.10;6.13;;;;;;;;;;757491;182;818986;-64
2024/02/10 03:18:45;;;;;;;11.82;6.45;;;;;;;;;;757689;183;853011;-63
2024/02/10 03:21:09;;;;;;;9.00;4.20;;;;;;;;;;768482;180;917747;-65
2024/02/10 03:23:35;;;;;;;6.90;3.33;;;;;;;;;;770228;180;922334;-65
2024/02/10 03:26:03;;;;;;;6.47;3.93;;;;;;;;;;763523;181;920642;-64
2024/02/10 03:28:27;;;;;;;7.37;5.03;;;;;;;;;;768866;180;918754;-63
2024/02/10 03:30:53;;;;;;;6.60;3.70;;;;;;;;;;775706;180;816598;-65
2024/02/10 03:33:18;;;;;;;7.27;5.27;;;;;;;;;;770168;180;910116;-66
2024/02/10 03:35:44;;;;;;;8.10;5.27;;;;;;;;;;771456;180;849774;-64
2024/02/10 03:38:10;;;;;;;7.03;5.07;;;;;;;;;;773717;180;820700;-65
2024/02/10 03:40:36;;;;;;;26.80;11.05;;;;;;;;;;769934;180;918737;-66
2024/02/10 03:43:02;;;;;;;21.77;11.83;;;;;;;;;;769173;180;819113;-64
2024/02/10 03:45:36;;;;;;;13.30;8.13;;;;;;;;;;774921;179;814936;-64
2024/02/10 03:47:54;;;;;;;21.40;10.27;;;;;;;;;;768072;180;815462;-69
2024/02/10 03:50:19;;;;;;;16.30;10.40;;;;;;;;;;769252;180;913623;-66
2024/02/10 03:52:46;;;;;;;14.43;8.80;;;;;;;;;;771342;180;805861;-64
2024/02/10 03:55:11;;;;;;;8.60;5.77;;;;;;;;;;773254;180;914976;-66
2024/02/10 03:57:37;;;;;;;8.20;4.93;;;;;;;;;;770746;179;812663;-64
2024/02/10 04:00:07;;;;;;;14.00;7.30;;;;;;;;;;769746;180;807261;-64
2024/02/10 04:02:29;;;;;;;10.37;7.40;;;;;;;;;;772595;180;919213;-63
2024/02/10 04:04:55;;;;;;;11.93;6.40;;;;;;;;;;769615;180;911621;-64
2024/02/10 04:07:20;;;;;;;10.80;6.73;;;;;;;;;;769792;179;918585;-64
2024/02/10 04:09:46;;;;;;;18.83;9.73;;;;;;;;;;771529;180;825501;-65
2024/02/10 04:12:12;;;;;;;15.80;8.57;;;;;;;;;;766391;180;1017995;-64
2024/02/10 04:14:38;;;;;;;11.70;7.80;;;;;;;;;;764727;180;920259;-65
2024/02/10 04:17:04;;;;;;;12.53;7.90;;;;;;;;;;766912;180;920035;-64
2024/02/10 04:19:30;;;;;;;12.53;7.20;;;;;;;;;;765640;182;921794;-65
2024/02/10 04:21:55;;;;;;;16.63;9.07;;;;;;;;;;770351;180;919006;-63
2024/02/10 04:24:21;;;;;;;14.45;9.80;;;;;;;;;;764833;180;923326;-64
2024/02/10 04:26:47;;;;;;;17.37;9.20;;;;;;;;;;773165;180;845070;-64
2024/02/10 04:29:14;;;;;;;15.63;9.97;;;;;;;;;;769854;180;919705;-63
2024/02/10 04:31:39;;;;;;;14.67;9.73;;;;;;;;;;768092;180;917600;-66
2024/02/10 04:34:05;;;;;;;15.30;9.97;;;;;;;;;;775457;179;919845;-66
2024/02/10 04:36:31;;;;;;;15.47;7.73;;;;;;;;;;769291;180;919717;-64
2024/02/10 04:38:57;;;;;;;10.90;7.40;;;;;;;;;;769428;180;921019;-65
2024/02/10 04:41:22;;;;;;;8.97;7.10;;;;;;;;;;774987;180;824427;-64
2024/02/10 04:43:48;;;;;;;11.07;8.50;;;;;;;;;;771467;180;918983;-66
2024/02/10 04:46:16;;;;;;;7.67;5.80;;;;;;;;;;769529;180;905542;-64
2024/02/10 04:48:40;;;;;;;7.73;5.70;;;;;;;;;;766732;180;818607;-66
2024/02/10 04:51:05;;;;;;;8.67;5.23;;;;;;;;;;775843;180;809343;-65
2024/02/10 04:53:31;;;;;;;5.83;4.67;;;;;;;;;;769129;180;915918;-63
2024/02/10 04:55:57;;;;;;;11.93;5.50;;;;;;;;;;768402;180;827285;-63
2024/02/10 04:58:23;;;;;;;11.97;4.27;;;;;;;;;;773319;180;897919;-66
2024/02/10 05:00:49;;;;;;;5.27;3.33;;;;;;;;;;768402;180;916768;-64
2024/02/10 05:03:15;;;;;;;12.27;5.50;;;;;;;;;;768472;180;899273;-64
2024/02/10 05:05:40;;;;;;;5.37;3.77;;;;;;;;;;773766;180;919617;-66
2024/02/10 05:08:12;;;;;;;7.90;5.60;;;;;;;;;;771467;180;920864;-63
2024/02/10 05:10:32;;;;;;;4.67;3.33;;;;;;;;;;768903;180;871559;-66
2024/02/10 05:12:58;;;;;;;6.17;3.97;;;;;;;;;;768342;180;919253;-65
2024/02/10 05:15:24;;;;;;;6.13;3.70;;;;;;;;;;761868;180;813451;-65
2024/02/10 05:17:50;;;;;;;7.33;4.70;;;;;;;;;;768464;179;922135;-63
2024/02/10 05:20:18;;;;;;;5.77;4.17;;;;;;;;;;766299;180;918898;-64
2024/02/10 05:22:43;;;;;;;6.87;3.57;;;;;;;;;;771380;180;918629;-63
2024/02/10 05:25:10;;;;;;;10.52;5.93;;;;;;;;;;768956;180;918808;-65
2024/02/10 05:27:36;;;;;;;14.63;8.30;;;;;;;;;;768090;180;919860;-65
2024/02/10 05:30:02;;;;;;;20.73;13.03;;;;;;;;;;773542;180;816264;-63
2024/02/10 05:32:28;;;;;;;13.30;8.60;;;;;;;;;;768706;180;919128;-64
2024/02/10 05:34:53;;;;;;;32.97;13.57;;;;;;;;;;769334;180;831670;-66
2024/02/10 05:37:19;;;;;;;37.67;14.23;;;;;;;;;;769851;180;808629;-63
2024/02/10 05:39:45;;;;;;;32.20;11.40;;;;;;;;;;761403;181;913246;-65
2024/02/10 05:42:11;;;;;;;38.53;14.07;;;;;;;;;;768645;180;913442;-63
2024/02/10 05:44:37;;;;;;;38.40;15.77;;;;;;;;;;765753;180;920636;-63
2024/02/10 05:47:04;;;;;;;43.67;15.57;;;;;;;;;;775325;180;623338;-63
2024/02/10 05:49:29;;;;;;;48.70;19.63;;;;;;;;;;769423;180;852455;-65
2024/02/10 05:51:54;;;;;;;51.80;26.93;;;;;;;;;;772423;180;635480;-64
2024/02/10 05:54:20;;;;;;;85.13;26.37;;;;;;;;;;776892;180;637831;-63
2024/02/10 05:56:46;;;;;;;77.20;23.57;;;;;;;;;;773752;180;636131;-66
2024/02/10 05:59:12;;;;;;;50.80;19.20;;;;;;;;;;774026;179;623361;-64
2024/02/10 06:01:38;;;;;;;87.62;24.45;;;;;;;;;;777543;180;634813;-66
2024/02/10 06:04:09;;;;;;;111.03;33.80;;;;;;;;;;773064;180;630443;-63
2024/02/10 06:06:30;;;;;;;94.17;28.60;;;;;;;;;;773915;180;624230;-66
2024/02/10 06:08:57;;;;;;;96.17;29.63;;;;;;;;;;773653;180;629522;-64
2024/02/10 06:11:24;;;;;;;156.43;32.47;;;;;;;;;;776764;180;633479;-63
2024/02/10 06:13:49;;;;;;;175.50;23.30;;;;;;;;;;771396;180;629504;-65
2024/02/10 06:16:14;;;;;;;69.93;16.67;;;;;;;;;;769776;180;636986;-63
2024/02/10 06:18:39;;;;;;;248.50;25.93;;;;;;;;;;776651;180;634638;-65
2024/02/10 06:21:05;;;;;;;204.87;25.50;;;;;;;;;;772943;180;624190;-63
2024/02/10 06:23:31;;;;;;;116.23;18.87;;;;;;;;;;772532;180;633040;-65
2024/02/10 06:25:56;;;;;;;254.20;21.97;;;;;;;;;;776133;180;636890;-66
2024/02/10 06:28:22;;;;;;;114.13;14.30;;;;;;;;;;773092;177;634156;-66
2024/02/10 06:30:50;;;;;;;94.30;11.77;;;;;;;;;;772254;180;637960;-64
2024/02/10 06:33:15;;;;;;;96.63;12.67;;;;;;;;;;775712;179;640634;-64
2024/02/10 06:35:43;;;;;;;74.57;13.67;;;;;;;;;;770617;179;915603;-63
2024/02/10 06:38:07;;;;;;;78.53;12.43;;;;;;;;;;767754;180;921122;-64
2024/02/10 06:40:33;;;;;;;88.68;13.23;;;;;;;;;;766455;180;938221;-63
2024/02/10 06:43:02;;;;;;;123.47;15.37;;;;;;;;;;774946;180;917675;-62
2024/02/10 06:45:25;;;;;;;55.60;12.50;;;;;;;;;;773851;179;895531;-63
2024/02/10 06:47:51;;;;;;;82.60;12.48;;;;;;;;;;772218;180;1015380;-63
2024/02/10 06:50:24;;;;;;;73.50;15.97;;;;;;;;;;774536;179;914777;-63
2024/02/10 06:52:49;;;;;;;39.17;8.30;;;;;;;;;;769633;180;812328;-66
2024/02/10 06:55:15;;;;;;;51.20;9.90;;;;;;;;;;764459;179;914553;-66
2024/02/10 06:57:41;;;;;;;66.00;10.30;;;;;;;;;;770233;180;817515;-65
2024/02/10 07:00:07;;;;;;;35.37;11.03;;;;;;;;;;778577;180;629963;-62
2024/02/10 07:02:33;;;;;;;31.60;12.07;;;;;;;;;;770896;180;917039;-64
2024/02/10 07:04:59;;;;;;;28.17;9.93;;;;;;;;;;771899;180;817942;-63
2024/02/10 07:07:25;;;;;;;38.03;10.20;;;;;;;;;;773585;180;885407;-65
2024/02/10 07:09:52;;;;;;;30.40;13.13;;;;;;;;;;769262;180;917558;-63
2024/02/10 07:12:17;;;;;;;31.60;10.90;;;;;;;;;;765911;180;921853;-63
2024/02/10 07:14:45;;;;;;;23.50;10.10;;;;;;;;;;768681;180;918103;-64
2024/02/10 07:17:11;;;;;;;27.03;10.87;;;;;;;;;;767853;180;1021234;-64
2024/02/10 07:19:36;;;;;;;45.00;13.23;;;;;;;;;;755836;182;919731;-66
2024/02/10 07:22:02;;;;;;;62.60;14.18;;;;;;;;;;766842;180;1022530;-65
2024/02/10 07:24:28;;;;;;;66.53;10.70;;;;;;;;;;776742;180;642446;-66
2024/02/10 07:26:56;;;;;;;41.27;10.23;;;;;;;;;;773027;180;622877;-64
2024/02/10 07:29:20;;;;;;;80.77;11.50;;;;;;;;;;772332;180;641751;-63
2024/02/10 07:31:46;;;;;;;40.83;9.67;;;;;;;;;;775861;180;912500;-64
2024/02/10 07:34:12;;;;;;;69.97;15.03;;;;;;;;;;769413;180;817533;-66
2024/02/10 07:36:38;;;;;;;46.83;11.03;;;;;;;;;;769674;180;715069;-65
2024/02/10 07:39:07;;;;;;;27.90;9.83;;;;;;;;;;771971;180;638011;-65
2024/02/10 07:41:35;;;;;;;32.70;15.57;;;;;;;;;;772204;180;814230;-65
2024/02/10 07:44:03;;;;;;;25.93;11.80;;;;;;;;;;767054;181;623381;-66
2024/02/10 07:46:26;;;;;;;29.73;15.03;;;;;;;;;;771484;180;624401;-65
2024/02/10 07:48:51;;;;;;;37.50;18.00;;;;;;;;;;775627;180;630758;-65
2024/02/10 07:51:20;;;;;;;29.53;14.60;;;;;;;;;;772381;180;629804;-65
2024/02/10 07:53:44;;;;;;;29.97;16.53;;;;;;;;;;775037;180;660251;-65
2024/02/10 07:56:09;;;;;;;21.90;11.20;;;;;;;;;;776832;179;712954;-63
2024/02/10 07:58:35;;;;;;;17.67;11.20;;;;;;;;;;775397;179;817050;-63
2024/02/10 08:01:01;;;;;;;21.70;12.50;;;;;;;;;;770204;180;650383;-63
2024/02/10 08:03:27;;;;;;;19.70;11.57;;;;;;;;;;770783;180;621422;-64
2024/02/10 08:05:52;;;;;;;20.63;11.10;;;;;;;;;;776264;180;618749;-63
2024/02/10 08:08:21;;;;;;;21.10;11.30;;;;;;;;;;772256;178;643607;-63
2024/02/10 08:10:44;;;;;;;17.83;11.47;;;;;;;;;;771025;180;829929;-64
2024/02/10 08:13:10;;;;;;;22.77;10.07;;;;;;;;;;776833;180;617023;-65
2024/02/10 08:15:36;;;;;;;23.80;11.57;;;;;;;;;;771950;180;814371;-65
2024/02/10 08:18:08;;;;;;;16.30;11.90;;;;;;;;;;771899;180;836790;-65
2024/02/10 08:20:28;;;;;;;13.60;8.43;;;;;;;;;;776230;180;917805;-65
2024/02/10 08:22:53;;;;;;;11.63;8.60;;;;;;;;;;772886;179;904525;-67
2024/02/10 08:25:20;;;;;;;10.47;7.97;;;;;;;;;;772774;180;918773;-67
2024/02/10 08:27:45;;;;;;;12.23;7.90;;;;;;;;;;770032;180;912541;-63
2024/02/10 08:30:16;;;;;;;16.23;10.57;;;;;;;;;;761543;183;930910;-63
2024/02/10 08:32:37;;;;;;;14.70;8.53;;;;;;;;;;767108;180;795752;-63
2024/02/10 08:35:06;;;;;;;13.57;6.37;;;;;;;;;;767901;180;808677;-63
2024/02/10 08:37:30;;;;;;;11.17;5.43;;;;;;;;;;773195;180;918961;-63
2024/02/10 08:39:57;;;;;;;13.37;6.93;;;;;;;;;;769768;180;810430;-62
2024/02/10 08:42:22;;;;;;;19.73;11.48;;;;;;;;;;771674;180;816686;-64
2024/02/10 08:44:47;;;;;;;13.10;7.27;;;;;;;;;;774881;180;840498;-62
2024/02/10 08:47:13;;;;;;;14.10;7.65;;;;;;;;;;769363;180;809876;-63
2024/02/10 08:49:39;;;;;;;16.27;10.20;;;;;;;;;;771152;180;716235;-63
2024/02/10 08:52:05;;;;;;;25.00;8.73;;;;;;;;;;770433;180;907774;-63
2024/02/10 08:54:31;;;;;;;13.13;5.87;;;;;;;;;;774441;178;819365;-63
2024/02/10 08:57:00;;;;;;;12.40;6.30;;;;;;;;;;772297;179;913769;-64
2024/02/10 08:59:23;;;;;;;15.25;7.28;;;;;;;;;;771440;179;717071;-65
2024/02/10 09:01:49;;;;;;;12.50;7.43;;;;;;;;;;773479;180;823605;-64
2024/02/10 09:04:15;;;;;;;12.00;6.10;;;;;;;;;;769441;180;912798;-64
2024/02/10 09:06:41;;;;;;;8.70;6.10;;;;;;;;;;769069;180;807711;-64
2024/02/10 09:09:10;;;;;;;12.63;6.20;;;;;;;;;;773132;180;918833;-64
2024/02/10 09:11:39;;;;;;;8.53;4.53;;;;;;;;;;771630;180;817879;-64
2024/02/10 09:13:59;;;;;;;15.65;6.00;;;;;;;;;;768946;180;814773;-65
2024/02/10 09:16:26;;;;;;;10.17;5.63;;;;;;;;;;775636;180;630800;-65
2024/02/10 09:18:51;;;;;;;10.50;4.87;;;;;;;;;;768452;178;788409;-65
2024/02/10 09:21:19;;;;;;;8.43;4.87;;;;;;;;;;768576;180;916980;-64
2024/02/10 09:23:43;;;;;;;11.10;4.90;;;;;;;;;;769352;180;935667;-65
2024/02/10 09:26:11;;;;;;;12.40;5.40;;;;;;;;;;772735;179;902182;-65
2024/02/10 09:28:34;;;;;;;10.97;5.93;;;;;;;;;;770122;180;918436;-65
2024/02/10 09:31:01;;;;;;;6.30;4.55;;;;;;;;;;768787;180;1020269;-65
2024/02/10 09:33:28;;;;;;;7.73;4.30;;;;;;;;;;773696;180;921751;-64
2024/02/10 09:35:52;;;;;;;11.43;4.60;;;;;;;;;;769460;180;952751;-64
2024/02/10 09:38:20;;;;;;;9.90;4.10;;;;;;;;;;768850;180;920605;-64
2024/02/10 09:40:44;;;;;;;6.10;3.70;;;;;;;;;;777030;180;615717;-64
2024/02/10 09:43:09;;;;;;;5.43;3.60;;;;;;;;;;771351;180;755520;-65
2024/02/10 09:45:35;;;;;;;8.33;5.27;;;;;;;;;;767173;180;919206;-64
2024/02/10 09:48:01;;;;;;;6.77;4.93;;;;;;;;;;768762;180;917499;-63
2024/02/10 09:50:31;;;;;;;8.43;4.63;;;;;;;;;;775666;180;816628;-63
2024/02/10 09:52:55;;;;;;;8.80;5.13;;;;;;;;;;769975;179;672494;-64
2024/02/10 09:55:20;;;;;;;7.43;4.70;;;;;;;;;;768349;180;819312;-64
2024/02/10 09:57:46;;;;;;;7.33;4.23;;;;;;;;;;776269;180;786013;-64
2024/02/10 10:00:12;;;;;;;6.90;4.10;;;;;;;;;;773927;179;656930;-64
2024/02/10 10:02:38;;;;;;;10.97;3.80;;;;;;;;;;772670;180;629867;-67
2024/02/10 10:05:04;;;;;;;6.10;3.60;;;;;;;;;;778693;180;629737;-67
2024/02/10 10:07:30;;;;;;;6.77;3.90;;;;;;;;;;768446;179;628556;-66
2024/02/10 10:09:56;;;;;;;6.93;3.40;;;;;;;;;;770482;181;816967;-67
2024/02/10 10:12:22;;;;;;;5.40;3.67;;;;;;;;;;767859;180;1323280;-66
2024/02/10 10:14:47;;;;;;;7.70;4.20;;;;;;;;;;768174;181;839226;-67
2024/02/10 10:17:13;;;;;;;7.80;3.40;;;;;;;;;;760893;182;715271;-67
2024/02/10 10:19:39;;;;;;;7.53;3.83;;;;;;;;;;771756;180;634107;-67
2024/02/10 10:22:05;;;;;;;9.73;4.97;;;;;;;;;;775034;180;634828;-66
2024/02/10 10:24:31;;;;;;;9.23;4.60;;;;;;;;;;768493;179;915772;-68
2024/02/10 10:26:59;;;;;;;7.13;4.33;;;;;;;;;;770544;180;720769;-66
2024/02/10 10:29:23;;;;;;;10.30;5.07;;;;;;;;;;772853;180;922800;-66
2024/02/10 10:31:49;;;;;;;7.60;4.40;;;;;;;;;;774154;179;638199;-67
2024/02/10 10:34:14;;;;;;;9.17;4.27;;;;;;;;;;771559;179;716732;-66
2024/02/10 10:36:40;;;;;;;7.73;4.00;;;;;;;;;;774123;180;632826;-66
2024/02/10 10:39:06;;;;;;;8.30;3.70;;;;;;;;;;772688;179;631876;-67
2024/02/10 10:41:32;;;;;;;8.07;4.57;;;;;;;;;;772856;180;625628;-68
2024/02/10 10:43:58;;;;;;;7.47;5.67;;;;;;;;;;771768;180;637574;-66
2024/02/10 10:46:24;;;;;;;7.10;3.17;;;;;;;;;;776901;180;808713;-67
2024/02/10 10:48:49;;;;;;;8.33;3.40;;;;;;;;;;770108;180;838173;-67
2024/02/10 10:51:15;;;;;;;8.27;3.50;;;;;;;;;;771482;180;815221;-67
2024/02/10 10:53:42;;;;;;;4.70;3.00;;;;;;;;;;775590;180;915980;-66
2024/02/10 10:56:07;;;;;;;6.53;2.90;;;;;;;;;;769391;180;918689;-69
2024/02/10 10:58:33;;;;;;;5.57;3.20;;;;;;;;;;770249;180;1014528;-69
2024/02/10 11:00:59;;;;;;;6.10;2.90;;;;;;;;;;775781;180;712079;-65
2024/02/10 11:03:24;;;;;;;4.90;3.40;;;;;;;;;;765808;180;1023940;-65
2024/02/10 11:05:50;;;;;;;6.20;3.13;;;;;;;;;;766524;180;1125962;-67
2024/02/10 11:08:22;;;;;;;5.97;2.53;;;;;;;;;;770183;180;1021599;-65
2024/02/10 11:10:50;;;;;;;7.43;3.00;;;;;;;;;;772563;180;919116;-67
2024/02/10 11:13:20;;;;;;;4.97;3.30;;;;;;;;;;765157;180;918403;-67
2024/02/10 11:15:45;;;;;;;8.13;3.78;;;;;;;;;;765494;179;1024574;-67
2024/02/10 11:18:17;;;;;;;6.12;2.72;;;;;;;;;;770221;181;918857;-67
2024/02/10 11:20:41;;;;;;;6.33;2.50;;;;;;;;;;771037;180;817585;-68
2024/02/10 11:23:10;;;;;;;11.80;3.57;;;;;;;;;;765683;180;915572;-68
2024/02/10 11:25:36;;;;;;;14.17;4.47;;;;;;;;;;767136;180;920220;-68
2024/02/10 11:28:00;;;;;;;5.37;3.47;;;;;;;;;;776094;180;803438;-68
2024/02/10 11:30:25;;;;;;;5.67;2.80;;;;;;;;;;772905;179;618340;-69
2024/02/10 11:32:51;;;;;;;5.83;3.47;;;;;;;;;;766573;180;914127;-69
2024/02/10 11:35:17;;;;;;;5.50;2.87;;;;;;;;;;773648;180;919508;-68
2024/02/10 11:37:43;;;;;;;8.67;3.60;;;;;;;;;;766258;180;1137816;-68
2024/02/10 11:40:19;;;;;;;9.43;3.30;;;;;;;;;;768410;180;919059;-69
2024/02/10 11:42:36;;;;;;;8.70;3.13;;;;;;;;;;770673;178;813546;-68
2024/02/10 11:45:02;;;;;;;4.83;3.03;;;;;;;;;;772491;180;716726;-68
2024/02/10 11:47:27;;;;;;;6.70;3.17;;;;;;;;;;767961;180;919901;-69
2024/02/10 11:49:53;;;;;;;8.20;4.00;;;;;;;;;;769856;180;824399;-68
2024/02/10 11:52:18;;;;;;;5.97;3.47;;;;;;;;;;775422;180;815166;-69
2024/02/10 11:54:45;;;;;;;5.20;3.23;;;;;;;;;;773357;180;957821;-68
2024/02/10 11:57:10;;;;;;;8.80;4.10;;;;;;;;;;767434;179;919539;-66
2024/02/10 11:59:36;;;;;;;7.60;3.83;;;;;;;;;;773072;180;893994;-63
2024/02/10 12:02:02;;;;;;;8.20;4.30;;;;;;;;;;770357;180;793992;-63
2024/02/10 12:04:32;;;;;;;7.68;4.85;;;;;;;;;;769537;180;936977;-64
2024/02/10 12:06:54;;;;;;;11.53;5.40;;;;;;;;;;767726;180;917621;-63
2024/02/10 12:09:19;;;;;;;9.70;4.43;;;;;;;;;;768004;182;904467;-64
2024/02/10 12:11:46;;;;;;;11.67;4.63;;;;;;;;;;772517;179;919252;-62
2024/02/10 12:14:14;;;;;;;10.37;5.03;;;;;;;;;;775136;179;915384;-62
2024/02/10 12:16:39;;;;;;;7.07;4.17;;;;;;;;;;772569;180;955517;-62
2024/02/10 12:19:06;;;;;;;8.67;4.90;;;;;;;;;;766874;180;916122;-63
2024/02/10 12:21:32;;;;;;;6.30;3.83;;;;;;;;;;768327;180;819221;-63
2024/02/10 12:23:59;;;;;;;6.20;3.87;;;;;;;;;;771457;179;893911;-63
2024/02/10 12:26:24;;;;;;;7.20;4.27;;;;;;;;;;770886;180;781996;-63
2024/02/10 12:28:51;;;;;;;5.70;3.23;;;;;;;;;;772392;180;912533;-68
2024/02/10 12:31:18;;;;;;;6.23;2.83;;;;;;;;;;767390;179;862570;-68
2024/02/10 12:33:42;;;;;;;6.60;3.43;;;;;;;;;;768377;181;922331;-68
2024/02/10 12:36:08;;;;;;;6.33;3.00;;;;;;;;;;768673;180;782319;-62
2024/02/10 12:38:33;;;;;;;6.30;3.30;;;;;;;;;;767080;180;814955;-72
2024/02/10 12:40:59;;;;;;;4.97;3.67;;;;;;;;;;771147;180;922560;-63
2024/02/10 12:43:26;;;;;;;6.17;3.77;;;;;;;;;;765743;180;1209838;-67
2024/02/10 12:45:51;;;;;;;5.87;3.43;;;;;;;;;;769073;180;909645;-68
2024/02/10 12:48:17;;;;;;;5.37;2.60;;;;;;;;;;776157;180;626153;-69
2024/02/10 12:50:44;;;;;;;6.70;3.80;;;;;;;;;;772189;180;640015;-69
2024/02/10 12:53:09;;;;;;;6.67;2.60;;;;;;;;;;771298;180;787115;-64
2024/02/10 12:55:38;;;;;;;7.30;4.40;;;;;;;;;;777565;180;651364;-62
2024/02/10 12:58:01;;;;;;;5.13;2.57;;;;;;;;;;767599;180;923881;-68
2024/02/10 13:00:27;;;;;;;9.40;3.60;;;;;;;;;;772537;179;900368;-67
2024/02/10 13:02:52;;;;;;;10.00;4.10;;;;;;;;;;773482;180;624945;-63
2024/02/10 13:05:19;;;;;;;6.50;2.83;;;;;;;;;;773732;180;919350;-61
2024/02/10 13:07:45;;;;;;;8.23;3.03;;;;;;;;;;769523;180;852308;-63
2024/02/10 13:12:42;;;;;;;6.60;3.30;;;;;;;;;;772733;180;897947;-63
2024/02/10 13:15:08;;;;;;;5.93;2.77;;;;;;;;;;770808;180;935924;-62
2024/02/10 13:17:36;;;;;;;7.37;4.03;;;;;;;;;;773865;180;685403;-62
2024/02/10 13:20:00;;;;;;;8.80;4.07;;;;;;;;;;773307;180;703363;-63
2024/02/10 13:22:26;;;;;;;5.10;2.83;;;;;;;;;;773916;180;903709;-62
2024/02/10 13:24:53;;;;;;;12.40;4.10;;;;;;;;;;765015;180;920746;-63
2024/02/10 13:27:17;;;;;;;7.97;4.10;;;;;;;;;;770508;179;793504;-68
2024/02/10 13:29:43;;;;;;;10.05;3.05;;;;;;;;;;772754;180;935720;-69
2024/02/10 13:32:11;;;;;;;5.10;3.40;;;;;;;;;;769682;180;827376;-68
2024/02/10 13:34:36;;;;;;;9.20;3.30;;;;;;;;;;766858;180;1025553;-64
2024/02/10 14:05:00;;;;;;;6.80;4.93;;;;;;;;;;769270;180;913469;-68
2024/02/10 14:10:23;;;;;;;6.83;2.73;;;;;;;;;;769397;180;714476;-64
2024/02/10 14:12:50;;;;;;;5.97;2.87;;;;;;;;;;770948;180;871041;-64
2024/02/10 14:15:16;;;;;;;5.83;3.03;;;;;;;;;;771080;179;810902;-63
2024/02/10 14:17:44;;;;;;;5.70;3.50;;;;;;;;;;770846;180;919398;-63
2024/02/10 14:20:18;;;;;;;5.53;2.93;;;;;;;;;;774253;179;911254;-63
2024/02/10 14:22:38;;;;;;;9.87;3.30;;;;;;;;;;769455;180;811596;-65
2024/02/10 14:25:08;;;;;;;4.83;2.90;;;;;;;;;;771072;180;817329;-63
2024/02/10 14:27:30;;;;;;;6.77;3.57;;;;;;;;;;772849;179;845058;-64
2024/02/10 14:29:56;;;;;;;4.40;2.73;;;;;;;;;;766696;180;921746;-64
2024/02/10 14:32:30;;;;;;;5.83;2.80;;;;;;;;;;768124;180;941305;-65
2024/02/10 14:37:30;;;;;;;10.07;4.40;;;;;;;;;;771045;180;805648;-64
2024/02/10 14:39:56;;;;;;;9.73;4.00;;;;;;;;;;765379;180;943392;-64
2024/02/10 14:42:22;;;;;;;6.30;3.70;;;;;;;;;;765496;180;855042;-65
2024/02/10 14:44:47;;;;;;;11.93;5.50;;;;;;;;;;768167;180;918495;-65
2024/02/10 14:47:13;;;;;;;12.30;5.53;;;;;;;;;;774319;180;847969;-64
2024/02/10 14:49:39;;;;;;;8.83;5.17;;;;;;;;;;769608;180;914102;-64